Big Piney, Wyoming
Current Conditions -  °F | °C
As of 9:53 AM on Friday 21 Nov 2014 (Local Time) from KBPI Reporting Station
Clear Clear  
Wind Chill: 12°   Ceiling: Unl
Heat Index: 20°   Visibility: 10mi
Dew Point: 15°   Wind: 6mph
Humidity: 81%   Direction: 80°E
Pressure: 30.07"   Gusts: NA
Location:  42.54°N, 110.11°W
Report Text: KBPI 211653Z AUTO 08005KT 10SM CLR M07/M09 A3007 RMK AO2 SLP222 T10671094
Loading
Personal Weather Stations






























Interactive Weather Map New forecast layout! Learn more

10-Day Weather Forecast

Advertisements
Track Severe Weather on mobile